Time;durP1;ratioP1;P1;durP2;ratioP2;P2;SDS_P1;SDS_P2;PMS_P1;PMS_P2;Temp;Humidity;BMP_temperature;BMP_pressure;BME280_temperature;BME280_humidity;BME280_pressure;Samples;Min_cycle;Max_cycle;Signal;HPM_P1;HPM_P2
2022/08/06 00:00:22;;;;;;;2.63;2.23;;;15.20;99.90;;;;;;5038709;28;20575;-73
2022/08/06 00:02:49;;;;;;;5.23;1.73;;;15.20;99.90;;;;;;5036030;28;20464;-71
2022/08/06 00:05:16;;;;;;;8.20;2.37;;;15.20;99.90;;;;;;5034477;28;20862;-72
2022/08/06 00:07:42;;;;;;;2.33;1.63;;;15.10;99.90;;;;;;5032722;28;20507;-72
2022/08/06 00:10:10;;;;;;;4.90;2.33;;;15.10;99.90;;;;;;5035810;28;20954;-71
2022/08/06 00:12:38;;;;;;;4.50;1.80;;;15.00;99.90;;;;;;5033668;28;20441;-71
2022/08/06 00:15:07;;;;;;;1.57;1.30;;;14.90;99.90;;;;;;5035674;28;22312;-71
2022/08/06 00:17:33;;;;;;;1.50;1.37;;;14.70;99.90;;;;;;5029264;28;20458;-70
2022/08/06 00:20:01;;;;;;;5.80;1.97;;;14.60;99.90;;;;;;5029512;28;20470;-71
2022/08/06 00:22:28;;;;;;;10.43;2.17;;;14.50;99.90;;;;;;5034671;28;20460;-71
2022/08/06 00:24:55;;;;;;;13.57;2.30;;;14.50;99.90;;;;;;5033595;28;20436;-72
2022/08/06 00:27:22;;;;;;;5.37;2.67;;;14.60;99.90;;;;;;5035497;28;20482;-70
2022/08/06 00:32:18;;;;;;;5.07;2.17;;;14.50;99.90;;;;;;5008473;28;20526;-70
2022/08/06 00:34:45;;;;;;;3.37;2.10;;;14.50;99.90;;;;;;5015218;28;20470;-68
2022/08/06 00:37:12;;;;;;;10.10;2.53;;;14.50;99.90;;;;;;5004892;28;20456;-71
2022/08/06 00:39:39;;;;;;;3.97;2.37;;;14.50;99.90;;;;;;5011615;28;20950;-70
2022/08/06 00:42:07;;;;;;;2.93;1.50;;;14.40;99.90;;;;;;5014430;28;20669;-71
2022/08/06 00:44:34;;;;;;;3.47;2.20;;;14.40;99.90;;;;;;5015747;28;22742;-69
2022/08/06 00:47:01;;;;;;;1.70;1.40;;;14.30;99.90;;;;;;5015339;28;20587;-71
2022/08/06 00:49:29;;;;;;;2.80;1.93;;;14.30;99.90;;;;;;5015726;28;20468;-70
2022/08/06 00:51:56;;;;;;;1.50;1.20;;;14.20;99.90;;;;;;5014780;28;20508;-68
2022/08/06 00:54:23;;;;;;;2.60;1.90;;;14.20;99.90;;;;;;5014418;28;20436;-69
2022/08/06 00:56:50;;;;;;;4.60;1.43;;;14.20;99.90;;;;;;5008553;28;20519;-71
2022/08/06 00:59:17;;;;;;;7.23;2.00;;;14.10;99.90;;;;;;5017570;28;20491;-70
2022/08/06 01:01:44;;;;;;;2.23;1.67;;;14.10;99.90;;;;;;5009706;28;20517;-69
2022/08/06 01:04:10;;;;;;;3.83;1.90;;;14.10;99.90;;;;;;5019694;28;20459;-70
2022/08/06 01:06:39;;;;;;;6.37;1.60;;;14.00;99.90;;;;;;5015418;28;20521;-69
2022/08/06 01:09:06;;;;;;;5.97;1.87;;;14.10;99.90;;;;;;5016916;28;20464;-69
2022/08/06 01:11:33;;;;;;;2.93;1.90;;;14.10;99.90;;;;;;5016573;28;21021;-70
2022/08/06 01:14:00;;;;;;;1.93;1.40;;;14.00;99.90;;;;;;5021809;28;20461;-70
2022/08/06 01:16:34;;;;;;;1.93;1.40;;;14.00;99.90;;;;;;5016488;28;20463;-69
2022/08/06 01:19:12;;;;;;;2.40;1.70;;;14.00;99.90;;;;;;5019593;28;20458;-69
2022/08/06 01:22:08;;;;;;;2.73;2.07;;;13.90;99.90;;;;;;5018038;28;20602;-68
2022/08/06 01:24:51;;;;;;;1.93;1.40;;;13.90;99.90;;;;;;5018755;28;20476;-69
2022/08/06 01:27:39;;;;;;;2.33;1.80;;;13.90;99.90;;;;;;5019508;28;21095;-69
2022/08/06 01:30:09;;;;;;;2.53;1.73;;;14.00;99.90;;;;;;5014892;28;20500;-69
2022/08/06 01:32:41;;;;;;;2.00;1.50;;;13.90;99.90;;;;;;5036438;28;20459;-69
2022/08/06 01:35:13;;;;;;;1.90;1.67;;;13.90;99.90;;;;;;5042532;28;20463;-69
2022/08/06 01:37:45;;;;;;;1.60;1.50;;;13.50;99.90;;;;;;5042211;28;20459;-69
2022/08/06 01:40:16;;;;;;;1.87;1.60;;;13.30;99.90;;;;;;5037526;28;20503;-69
2022/08/06 01:42:45;;;;;;;2.97;1.60;;;13.20;99.90;;;;;;5037987;28;20430;-70
2022/08/06 01:45:15;;;;;;;3.30;1.37;;;13.30;99.90;;;;;;5039126;28;20486;-70
2022/08/06 01:47:47;;;;;;;1.60;1.50;;;13.40;99.90;;;;;;5043192;28;20490;-70
2022/08/06 01:50:16;;;;;;;4.90;1.60;;;13.50;99.90;;;;;;5043236;28;20443;-70
2022/08/06 01:52:44;;;;;;;3.53;1.90;;;13.60;99.90;;;;;;5038976;28;20460;-70
2022/08/06 01:55:14;;;;;;;3.47;1.50;;;13.60;99.90;;;;;;5036005;28;20453;-70
2022/08/06 01:57:46;;;;;;;2.50;1.67;;;13.70;99.90;;;;;;5033191;28;20467;-71
2022/08/06 02:00:14;;;;;;;1.80;1.30;;;13.60;99.90;;;;;;5038896;28;21011;-69
2022/08/06 02:02:42;;;;;;;1.70;1.60;;;13.60;99.90;;;;;;5036471;28;21361;-69
2022/08/06 02:05:10;;;;;;;2.17;1.90;;;13.60;99.90;;;;;;5033550;28;20975;-69
2022/08/06 02:07:41;;;;;;;3.30;1.43;;;13.30;99.90;;;;;;5034645;28;20562;-69
2022/08/06 02:10:10;;;;;;;1.40;1.30;;;13.20;99.90;;;;;;5038757;28;20856;-69
2022/08/06 02:12:38;;;;;;;3.10;1.30;;;13.30;99.90;;;;;;5035875;28;20483;-69
2022/08/06 02:15:13;;;;;;;2.73;1.77;;;13.30;99.90;;;;;;5036195;28;20467;-73
2022/08/06 02:17:43;;;;;;;4.70;1.83;;;13.30;99.90;;;;;;5038096;28;20430;-70
2022/08/06 02:20:12;;;;;;;2.50;1.77;;;13.30;99.90;;;;;;5037854;28;20848;-70
2022/08/06 02:22:42;;;;;;;2.60;1.53;;;13.10;99.90;;;;;;5039202;28;20460;-69
2022/08/06 02:25:11;;;;;;;1.53;1.40;;;13.10;99.90;;;;;;5037773;28;20454;-69
2022/08/06 02:27:42;;;;;;;2.47;1.57;;;13.20;99.90;;;;;;5036593;28;21008;-69
2022/08/06 02:30:13;;;;;;;2.80;1.43;;;13.20;99.90;;;;;;5036530;28;20482;-69
2022/08/06 02:32:40;;;;;;;2.40;1.80;;;13.20;99.90;;;;;;5036836;28;20555;-69
2022/08/06 02:35:08;;;;;;;2.60;1.73;;;13.20;99.90;;;;;;5041629;28;20441;-69
2022/08/06 02:37:39;;;;;;;2.83;2.43;;;13.20;99.90;;;;;;5036158;28;20463;-69
2022/08/06 02:40:10;;;;;;;2.00;1.80;;;13.00;99.90;;;;;;5040918;28;20569;-70
2022/08/06 02:42:41;;;;;;;3.13;1.57;;;12.80;99.90;;;;;;5035238;28;20964;-69
2022/08/06 02:45:16;;;;;;;1.63;1.27;;;12.70;99.90;;;;;;5033550;28;20464;-69
2022/08/06 02:47:49;;;;;;;2.53;2.20;;;12.70;99.90;;;;;;5035787;28;20483;-69
2022/08/06 02:50:18;;;;;;;3.53;2.00;;;12.80;99.90;;;;;;5036622;28;20450;-68
2022/08/06 02:52:50;;;;;;;1.70;1.60;;;12.90;99.90;;;;;;5038079;28;20747;-70
2022/08/06 02:55:19;;;;;;;2.00;1.50;;;12.80;99.90;;;;;;5030380;28;20441;-70
2022/08/06 02:57:50;;;;;;;1.73;1.57;;;12.80;99.90;;;;;;5037226;28;21065;-68
2022/08/06 03:00:20;;;;;;;2.17;1.97;;;12.70;99.90;;;;;;5034151;28;20532;-68
2022/08/06 03:02:54;;;;;;;1.87;1.67;;;12.60;99.90;;;;;;5037105;28;20463;-69
2022/08/06 03:05:24;;;;;;;2.10;1.70;;;12.60;99.90;;;;;;5037802;28;20442;-68
2022/08/06 03:07:53;;;;;;;2.73;1.47;;;12.60;99.90;;;;;;5036418;28;20520;-69
2022/08/06 03:10:22;;;;;;;7.23;2.03;;;12.60;99.90;;;;;;5030421;28;20487;-69
2022/08/06 03:12:51;;;;;;;3.93;2.77;;;12.60;99.90;;;;;;5033604;28;20470;-70
2022/08/06 03:15:21;;;;;;;1.97;1.70;;;12.70;99.90;;;;;;5040776;28;20999;-69
2022/08/06 03:17:49;;;;;;;2.20;2.00;;;12.60;99.90;;;;;;5031714;28;20431;-70
2022/08/06 03:20:21;;;;;;;2.57;2.17;;;12.70;99.90;;;;;;5035149;28;20487;-70
2022/08/06 03:22:52;;;;;;;2.33;1.97;;;12.70;99.90;;;;;;5038248;28;20467;-69
2022/08/06 03:25:20;;;;;;;2.17;1.97;;;12.70;99.90;;;;;;5039452;28;20455;-69
2022/08/06 03:27:48;;;;;;;2.27;1.83;;;12.80;99.90;;;;;;5035704;28;21503;-68
2022/08/06 03:30:17;;;;;;;6.83;1.97;;;12.70;99.90;;;;;;5033413;28;20464;-69
2022/08/06 03:32:46;;;;;;;2.23;1.27;;;12.70;99.90;;;;;;5034962;28;20971;-70
2022/08/06 03:35:14;;;;;;;2.63;2.00;;;12.60;99.90;;;;;;5034174;28;20531;-69
2022/08/06 03:37:42;;;;;;;2.17;1.97;;;12.60;99.90;;;;;;5035492;28;20542;-70
2022/08/06 03:40:11;;;;;;;2.90;2.70;;;12.50;99.90;;;;;;5032461;28;20508;-69
2022/08/06 03:42:38;;;;;;;7.73;2.50;;;12.60;99.90;;;;;;5036610;28;20438;-69
2022/08/06 03:45:13;;;;;;;4.17;2.30;;;12.70;99.90;;;;;;5033359;28;21030;-68
2022/08/06 03:47:44;;;;;;;2.00;1.70;;;12.70;99.90;;;;;;5032759;28;20464;-69
2022/08/06 03:50:15;;;;;;;2.30;2.07;;;12.70;99.90;;;;;;5033402;28;21971;-70
2022/08/06 03:52:49;;;;;;;3.20;2.50;;;12.70;99.90;;;;;;5033123;28;20439;-70
2022/08/06 03:55:20;;;;;;;2.03;1.83;;;12.60;99.90;;;;;;5032166;28;20434;-70
2022/08/06 03:57:49;;;;;;;2.17;1.97;;;12.60;99.90;;;;;;5034617;28;20553;-69
2022/08/06 04:00:19;;;;;;;2.97;2.20;;;12.60;99.90;;;;;;5038552;28;20573;-69
2022/08/06 04:02:48;;;;;;;7.03;3.40;;;12.60;99.90;;;;;;5037297;28;20448;-69
2022/08/06 04:05:19;;;;;;;9.70;2.63;;;12.60;99.90;;;;;;5026965;28;20456;-68
2022/08/06 04:07:47;;;;;;;2.30;1.90;;;12.60;99.90;;;;;;5030427;28;20482;-68
2022/08/06 04:10:15;;;;;;;1.97;1.77;;;12.60;99.90;;;;;;5032235;28;20484;-70
2022/08/06 04:12:44;;;;;;;1.97;1.80;;;12.60;99.90;;;;;;5031218;28;20464;-70
2022/08/06 04:15:13;;;;;;;4.10;2.50;;;12.30;99.90;;;;;;5032814;28;20455;-68
2022/08/06 04:17:42;;;;;;;3.33;2.53;;;12.30;99.90;;;;;;5036661;28;20438;-70
2022/08/06 04:20:10;;;;;;;6.93;2.60;;;12.30;99.90;;;;;;5028943;28;20461;-68
2022/08/06 04:22:39;;;;;;;2.27;1.70;;;12.30;99.90;;;;;;5032095;28;20463;-67
2022/08/06 04:25:07;;;;;;;5.10;3.20;;;12.40;99.90;;;;;;5032336;28;20937;-68
2022/08/06 04:27:36;;;;;;;4.53;2.53;;;12.30;99.90;;;;;;5031816;28;20585;-69
2022/08/06 04:30:04;;;;;;;3.03;2.40;;;12.30;99.90;;;;;;5027697;28;20457;-70
2022/08/06 04:32:32;;;;;;;5.80;2.60;;;12.20;99.90;;;;;;5029227;28;20433;-70
2022/08/06 04:35:02;;;;;;;2.37;2.10;;;12.30;99.90;;;;;;5036997;28;21037;-69
2022/08/06 04:37:29;;;;;;;4.77;2.03;;;12.40;99.90;;;;;;5027933;28;20514;-70
2022/08/06 04:39:58;;;;;;;7.10;2.47;;;12.30;99.90;;;;;;5027510;28;20431;-70
2022/08/06 04:42:26;;;;;;;11.60;2.40;;;12.40;99.90;;;;;;5038999;28;20496;-70
2022/08/06 04:44:54;;;;;;;2.33;2.13;;;12.50;99.90;;;;;;5036880;28;21199;-68
2022/08/06 04:47:21;;;;;;;3.83;2.27;;;12.60;99.90;;;;;;5033478;28;21144;-68
2022/08/06 04:49:48;;;;;;;3.23;2.20;;;12.60;99.90;;;;;;5045183;28;20535;-68
2022/08/06 04:52:26;;;;;;;2.00;1.77;;;12.70;99.90;;;;;;5040416;28;20474;-68
2022/08/06 04:54:53;;;;;;;2.90;2.50;;;12.80;99.90;;;;;;5042310;28;21184;-68
2022/08/06 04:57:21;;;;;;;3.20;2.60;;;12.80;99.90;;;;;;5040993;28;20452;-69
2022/08/06 04:59:48;;;;;;;2.30;1.73;;;12.90;99.90;;;;;;5043581;28;20482;-68
2022/08/06 05:02:15;;;;;;;2.57;2.37;;;13.10;99.90;;;;;;5042035;28;20432;-69
2022/08/06 05:04:42;;;;;;;2.57;1.83;;;13.10;99.90;;;;;;5044359;28;20462;-68
2022/08/06 05:07:15;;;;;;;7.60;2.60;;;13.40;99.90;;;;;;5043037;28;20515;-68
2022/08/06 05:09:42;;;;;;;2.03;1.90;;;13.80;99.90;;;;;;5038662;28;20460;-68
2022/08/06 05:12:19;;;;;;;2.77;2.20;;;14.20;99.90;;;;;;5043559;28;20415;-69
2022/08/06 05:14:53;;;;;;;5.10;3.20;;;14.70;99.90;;;;;;5043179;28;21245;-69
2022/08/06 05:17:23;;;;;;;2.50;1.90;;;14.90;99.90;;;;;;5030352;28;20467;-69
2022/08/06 05:19:56;;;;;;;2.10;1.90;;;15.10;99.90;;;;;;5034659;28;20463;-68
2022/08/06 05:22:23;;;;;;;4.20;3.10;;;15.30;99.90;;;;;;5036129;28;20463;-69
2022/08/06 05:24:50;;;;;;;2.97;2.60;;;15.60;99.90;;;;;;5028995;28;20510;-69
2022/08/06 05:27:17;;;;;;;2.97;2.67;;;15.90;99.90;;;;;;5023875;28;20480;-68
2022/08/06 05:29:44;;;;;;;2.23;2.03;;;16.20;99.90;;;;;;5036332;28;20467;-69
2022/08/06 05:32:13;;;;;;;2.83;2.60;;;16.70;99.90;;;;;;5042379;28;20466;-69
2022/08/06 05:34:40;;;;;;;2.80;2.10;;;17.00;99.90;;;;;;5040585;28;20878;-68
2022/08/06 05:37:07;;;;;;;4.00;2.30;;;16.90;99.90;;;;;;5032048;28;20455;-68
2022/08/06 05:39:34;;;;;;;2.57;2.07;;;17.50;99.90;;;;;;5021112;28;20459;-68
2022/08/06 05:42:01;;;;;;;3.23;2.30;;;17.90;99.90;;;;;;5031867;28;20852;-68
2022/08/06 05:44:28;;;;;;;2.90;2.03;;;18.30;99.90;;;;;;5012077;28;21387;-69
2022/08/06 05:46:58;;;;;;;3.47;2.30;;;18.50;99.90;;;;;;5022215;28;20588;-69
2022/08/06 05:49:29;;;;;;;4.07;2.90;;;18.90;99.90;;;;;;5032308;28;20487;-71
2022/08/06 05:52:02;;;;;;;3.70;2.20;;;19.20;99.90;;;;;;5017316;28;20866;-69
2022/08/06 05:54:38;;;;;;;2.30;1.97;;;19.50;99.90;;;;;;5024018;28;20486;-70
2022/08/06 05:57:10;;;;;;;7.77;2.20;;;19.90;99.90;;;;;;5037926;28;21001;-67
2022/08/06 05:59:42;;;;;;;3.67;2.27;;;19.70;99.90;;;;;;5028389;28;20559;-70
2022/08/06 06:02:12;;;;;;;2.93;2.30;;;19.70;99.90;;;;;;5028368;28;20452;-70
2022/08/06 06:04:41;;;;;;;7.87;2.20;;;19.90;99.90;;;;;;5036492;28;21112;-69
2022/08/06 06:07:09;;;;;;;6.13;2.80;;;19.70;99.90;;;;;;5034778;28;22886;-70
2022/08/06 06:09:36;;;;;;;5.30;2.23;;;19.90;99.90;;;;;;5025701;28;20464;-69
2022/08/06 06:12:07;;;;;;;2.53;2.30;;;20.10;99.90;;;;;;5026157;28;20506;-70
2022/08/06 06:14:40;;;;;;;7.20;2.00;;;19.90;99.90;;;;;;5027527;28;20448;-69
2022/08/06 06:17:32;;;;;;;2.53;2.30;;;19.80;99.90;;;;;;5034454;28;20457;-70
2022/08/06 06:20:14;;;;;;;2.80;2.40;;;19.70;99.90;;;;;;5031553;28;20476;-70
2022/08/06 06:22:50;;;;;;;6.80;2.30;;;20.50;99.90;;;;;;5035000;28;20468;-70
2022/08/06 06:25:23;;;;;;;3.43;1.77;;;21.00;99.90;;;;;;5030846;28;20455;-69
2022/08/06 06:27:56;;;;;;;2.30;1.67;;;20.90;99.90;;;;;;5033113;28;20468;-70
2022/08/06 06:30:30;;;;;;;2.17;1.97;;;20.70;99.90;;;;;;5026641;28;20484;-71
2022/08/06 06:33:04;;;;;;;1.87;1.70;;;21.20;99.90;;;;;;5033062;28;20663;-71
2022/08/06 06:35:42;;;;;;;4.60;2.33;;;21.30;99.90;;;;;;5044156;28;21060;-71
2022/08/06 06:38:21;;;;;;;9.80;5.87;;;21.70;99.90;;;;;;5045447;28;20464;-71
2022/08/06 06:40:55;;;;;;;1.93;1.40;;;22.00;99.90;;;;;;5045007;28;20459;-72
2022/08/06 06:43:28;;;;;;;2.70;2.50;;;22.00;99.90;;;;;;5044899;28;20508;-71
2022/08/06 06:46:03;;;;;;;1.93;1.40;;;21.50;99.90;;;;;;5037763;28;20976;-71
2022/08/06 06:48:35;;;;;;;2.03;1.50;;;21.80;99.90;;;;;;5043366;28;20498;-71
2022/08/06 06:51:09;;;;;;;2.07;1.77;;;22.10;99.90;;;;;;5046445;28;20468;-72
2022/08/06 06:53:41;;;;;;;1.60;1.30;;;22.70;99.90;;;;;;5070355;22;20498;-71
2022/08/06 06:56:09;;;;;;;7.73;2.10;;;22.30;99.90;;;;;;5080675;28;20454;-69
2022/08/06 06:58:38;;;;;;;3.33;1.60;;;22.50;99.90;;;;;;5082557;28;20453;-69
2022/08/06 07:01:07;;;;;;;5.73;2.30;;;22.40;99.90;;;;;;5086090;28;20438;-70
2022/08/06 07:03:35;;;;;;;2.50;1.40;;;22.50;99.90;;;;;;5072644;28;20485;-69
2022/08/06 07:06:08;;;;;;;3.03;1.57;;;22.80;99.90;;;;;;5075596;28;20556;-70
2022/08/06 07:08:40;;;;;;;2.70;1.53;;;22.90;99.90;;;;;;5070513;28;20462;-69
2022/08/06 07:11:08;;;;;;;5.37;1.67;;;22.80;99.90;;;;;;5075456;28;20443;-70
2022/08/06 07:13:38;;;;;;;2.00;1.70;;;22.90;99.90;;;;;;5070508;28;20482;-70
2022/08/06 07:16:06;;;;;;;3.30;1.67;;;23.40;99.90;;;;;;5065328;28;20462;-70
2022/08/06 07:18:34;;;;;;;3.13;1.10;;;22.90;99.90;;;;;;5074916;28;20519;-70
2022/08/06 07:21:04;;;;;;;3.43;1.50;;;23.30;99.90;;;;;;5076917;28;20529;-70
2022/08/06 07:23:32;;;;;;;3.73;1.70;;;23.80;99.90;;;;;;5084961;28;20826;-70
2022/08/06 07:26:01;;;;;;;1.43;1.13;;;24.20;99.90;;;;;;5077661;28;21291;-70
2022/08/06 07:28:29;;;;;;;1.73;1.20;;;23.90;99.90;;;;;;5083348;28;20477;-70
2022/08/06 07:30:58;;;;;;;2.00;1.20;;;24.30;99.90;;;;;;5078129;28;20445;-71
2022/08/06 07:33:25;;;;;;;2.10;1.40;;;24.50;99.90;;;;;;5078482;28;20477;-69
2022/08/06 07:35:54;;;;;;;2.57;1.10;;;23.70;99.90;;;;;;5078058;28;20675;-70
2022/08/06 07:38:27;;;;;;;2.73;1.30;;;24.00;99.90;;;;;;5077684;28;20567;-70
2022/08/06 07:40:55;;;;;;;3.00;1.73;;;24.50;99.90;;;;;;5081304;28;20528;-70
2022/08/06 07:43:25;;;;;;;2.40;0.90;;;24.20;99.90;;;;;;5080822;28;20464;-70
2022/08/06 07:45:53;;;;;;;2.60;1.17;;;23.90;99.90;;;;;;5080075;28;20462;-70
2022/08/06 07:48:27;;;;;;;1.57;1.00;;;24.90;99.90;;;;;;5082901;28;20480;-70
2022/08/06 07:50:55;;;;;;;3.87;1.10;;;25.30;99.90;;;;;;5080723;28;20497;-70
2022/08/06 07:53:24;;;;;;;1.33;0.87;;;24.50;99.90;;;;;;5078344;28;20900;-70
2022/08/06 07:55:52;;;;;;;5.73;1.53;;;24.80;99.90;;;;;;5076478;28;20443;-69
2022/08/06 07:58:20;;;;;;;1.50;1.13;;;24.70;99.90;;;;;;5080579;28;20451;-70
2022/08/06 08:00:48;;;;;;;1.30;0.83;;;25.00;99.90;;;;;;5078876;28;20461;-70
2022/08/06 08:06:22;;;;;;;1.40;1.03;;;25.30;98.20;;;;;;5037786;28;20427;-70
2022/08/06 08:08:53;;;;;;;4.10;1.37;;;26.30;97.50;;;;;;5070456;28;20476;-70
2022/08/06 08:11:23;;;;;;;1.20;0.80;;;25.70;97.50;;;;;;5077309;28;20793;-69
2022/08/06 08:13:52;;;;;;;2.50;0.73;;;25.70;97.90;;;;;;5083681;28;20889;-73
2022/08/06 08:16:20;;;;;;;1.30;0.80;;;25.40;97.90;;;;;;5082271;28;20456;-70
2022/08/06 08:18:47;;;;;;;2.83;1.40;;;25.80;97.20;;;;;;5080585;28;20909;-69
2022/08/06 08:21:15;;;;;;;1.17;0.80;;;25.50;97.10;;;;;;5078904;28;20758;-70
2022/08/06 08:23:46;;;;;;;1.70;0.90;;;25.70;96.00;;;;;;5079853;28;20475;-70
2022/08/06 08:26:15;;;;;;;1.87;1.00;;;25.60;95.00;;;;;;5082572;28;20567;-70
2022/08/06 08:28:42;;;;;;;1.83;1.07;;;26.00;95.00;;;;;;5081063;28;20486;-72
2022/08/06 08:31:11;;;;;;;2.53;1.50;;;25.50;95.50;;;;;;5082366;28;21027;-70
2022/08/06 08:33:39;;;;;;;1.47;1.00;;;25.80;95.50;;;;;;5073516;28;20506;-71
2022/08/06 08:36:06;;;;;;;1.20;0.90;;;26.60;93.60;;;;;;5070982;28;20452;-71
2022/08/06 08:38:34;;;;;;;1.10;0.70;;;27.70;90.50;;;;;;5078428;28;20475;-70
2022/08/06 08:41:04;;;;;;;3.03;1.00;;;28.40;87.70;;;;;;5079503;28;20927;-71
2022/08/06 08:43:37;;;;;;;1.77;0.90;;;28.10;86.10;;;;;;5077729;28;20488;-70
2022/08/06 08:46:07;;;;;;;2.73;1.30;;;27.50;90.00;;;;;;5074136;28;20459;-70
2022/08/06 08:48:35;;;;;;;1.47;0.80;;;27.50;86.60;;;;;;5079627;28;20504;-70
2022/08/06 08:51:03;;;;;;;3.93;1.23;;;27.40;87.00;;;;;;5081544;28;20957;-71
2022/08/06 08:53:34;;;;;;;2.90;0.90;;;28.20;84.00;;;;;;5078295;28;20516;-71
2022/08/06 08:56:03;;;;;;;1.30;0.90;;;28.20;81.40;;;;;;5081184;28;20954;-71
2022/08/06 08:58:36;;;;;;;1.60;0.70;;;28.40;80.10;;;;;;5078515;28;20525;-71
2022/08/06 09:01:08;;;;;;;2.17;0.83;;;27.70;81.70;;;;;;5066418;28;20543;-71
2022/08/06 09:03:36;;;;;;;1.40;0.90;;;27.00;83.00;;;;;;5068466;28;20586;-70
2022/08/06 09:06:03;;;;;;;1.83;1.00;;;27.40;81.60;;;;;;5067600;28;20470;-70
2022/08/06 09:08:32;;;;;;;1.30;0.90;;;27.70;80.80;;;;;;5068579;28;20484;-71
2022/08/06 09:10:59;;;;;;;1.20;0.80;;;28.70;77.80;;;;;;5075797;28;20463;-73
2022/08/06 09:13:27;;;;;;;1.70;0.80;;;29.40;72.40;;;;;;5062217;28;20481;-70
2022/08/06 09:15:55;;;;;;;1.77;0.90;;;30.00;72.50;;;;;;5074162;28;20582;-70
2022/08/06 09:18:24;;;;;;;1.93;0.80;;;29.80;70.10;;;;;;5074975;28;20457;-70
2022/08/06 09:20:52;;;;;;;1.37;0.90;;;30.20;68.10;;;;;;5072951;28;20459;-70
2022/08/06 09:23:19;;;;;;;3.30;0.90;;;30.00;66.80;;;;;;5078140;28;20478;-70
2022/08/06 09:25:47;;;;;;;1.10;0.80;;;30.60;64.20;;;;;;5069371;28;20460;-71
2022/08/06 09:28:28;;;;;;;1.80;0.90;;;29.80;62.80;;;;;;5084302;28;20912;-71
2022/08/06 09:30:59;;;;;;;1.20;0.80;;;28.90;65.00;;;;;;5078616;28;20540;-70
2022/08/06 09:33:28;;;;;;;1.30;0.80;;;28.50;64.40;;;;;;5069414;28;20487;-70
2022/08/06 09:35:59;;;;;;;1.10;0.80;;;28.90;60.50;;;;;;5078703;28;20465;-70
2022/08/06 09:38:28;;;;;;;1.10;0.80;;;28.80;60.40;;;;;;5070110;28;20454;-71
2022/08/06 09:41:09;;;;;;;1.60;0.90;;;29.30;61.80;;;;;;5075737;28;20462;-71
2022/08/06 09:43:37;;;;;;;1.20;0.80;;;28.50;64.40;;;;;;5079314;28;20472;-70
2022/08/06 09:46:05;;;;;;;1.80;0.93;;;28.80;63.10;;;;;;5077734;28;20454;-70
2022/08/06 09:48:33;;;;;;;1.50;0.80;;;28.50;60.90;;;;;;5059371;28;20505;-71
2022/08/06 09:51:01;;;;;;;1.30;0.70;;;29.30;64.70;;;;;;5081515;28;20604;-70
2022/08/06 09:53:28;;;;;;;2.50;0.80;;;29.90;59.40;;;;;;5075394;28;20548;-70
2022/08/06 09:55:56;;;;;;;1.17;0.77;;;30.10;59.50;;;;;;5067114;28;20461;-70
2022/08/06 09:58:32;;;;;;;1.20;0.70;;;30.60;60.10;;;;;;5079703;28;20571;-70
2022/08/06 10:01:12;;;;;;;2.30;0.90;;;31.40;58.90;;;;;;5067155;28;20472;-70
2022/08/06 10:03:41;;;;;;;4.60;1.10;;;31.00;57.40;;;;;;5063958;28;20478;-70
2022/08/06 10:06:11;;;;;;;2.50;1.00;;;30.50;58.50;;;;;;5069248;28;20455;-70
2022/08/06 10:08:39;;;;;;;1.77;1.00;;;30.80;57.50;;;;;;5056172;28;20485;-70
2022/08/06 10:11:06;;;;;;;1.43;0.87;;;30.80;56.60;;;;;;5069479;28;20467;-70
2022/08/06 10:13:33;;;;;;;1.20;0.77;;;30.10;57.90;;;;;;5080484;28;20807;-70
2022/08/06 10:16:14;;;;;;;4.00;0.90;;;30.00;58.90;;;;;;5069124;28;20464;-71
2022/08/06 10:18:43;;;;;;;1.10;0.70;;;30.70;57.00;;;;;;5062426;28;20452;-71
2022/08/06 10:21:12;;;;;;;1.87;1.10;;;30.00;56.60;;;;;;5076215;28;20446;-71
2022/08/06 10:23:41;;;;;;;3.67;0.90;;;29.90;57.40;;;;;;5077912;28;20478;-71
2022/08/06 10:26:10;;;;;;;2.10;0.90;;;30.00;58.30;;;;;;5066508;28;21215;-71
2022/08/06 10:28:39;;;;;;;1.40;0.90;;;30.50;56.40;;;;;;5070267;28;20473;-71
2022/08/06 10:31:09;;;;;;;4.33;0.90;;;31.20;57.00;;;;;;5069900;28;20462;-70
2022/08/06 10:33:44;;;;;;;1.33;0.70;;;31.40;56.30;;;;;;5059252;28;20488;-70
2022/08/06 10:36:14;;;;;;;2.57;1.10;;;31.10;54.20;;;;;;5070274;28;20550;-71
2022/08/06 10:38:45;;;;;;;3.63;1.07;;;29.70;56.90;;;;;;5072219;28;20471;-69
2022/08/06 10:41:13;;;;;;;2.50;1.10;;;28.20;58.90;;;;;;5075981;28;20474;-68
2022/08/06 10:43:41;;;;;;;1.20;0.80;;;26.90;61.70;;;;;;5069866;28;20495;-70
2022/08/06 10:46:10;;;;;;;3.73;1.10;;;26.50;64.40;;;;;;5071952;28;20455;-71
2022/08/06 10:48:38;;;;;;;1.30;1.00;;;26.10;64.90;;;;;;5070988;28;20462;-71
2022/08/06 10:51:09;;;;;;;1.20;0.80;;;25.50;66.70;;;;;;5076212;28;21215;-71
2022/08/06 10:53:37;;;;;;;2.13;0.90;;;25.10;65.10;;;;;;5081254;28;20635;-71
2022/08/06 10:56:06;;;;;;;1.70;0.90;;;25.20;64.50;;;;;;5071790;28;20837;-71
2022/08/06 10:58:35;;;;;;;1.10;0.80;;;26.20;63.90;;;;;;5083579;28;20827;-70
2022/08/06 11:01:05;;;;;;;1.13;0.77;;;27.00;62.40;;;;;;5081025;28;20457;-70
2022/08/06 11:03:58;;;;;;;1.30;1.00;;;28.50;60.40;;;;;;5068850;28;20484;-70
2022/08/06 11:07:01;;;;;;;1.20;0.80;;;30.20;58.30;;;;;;5059348;28;20552;-70
2022/08/06 11:09:54;;;;;;;3.17;1.10;;;31.80;56.20;;;;;;5066918;28;20481;-71
2022/08/06 11:12:35;;;;;;;1.30;0.90;;;32.80;53.40;;;;;;5062389;28;20490;-71
2022/08/06 11:15:05;;;;;;;1.40;0.90;;;32.80;52.70;;;;;;5066803;28;20532;-70
2022/08/06 11:17:43;;;;;;;1.20;0.80;;;32.20;53.00;;;;;;5070384;28;20462;-71
2022/08/06 11:20:39;;;;;;;1.70;1.00;;;31.20;52.90;;;;;;5059212;28;20532;-70
2022/08/06 11:23:23;;;;;;;1.97;0.87;;;30.90;53.00;;;;;;5080575;28;20523;-71
2022/08/06 11:25:52;;;;;;;2.50;0.90;;;32.00;52.40;;;;;;5073398;28;20934;-71
2022/08/06 11:28:20;;;;;;;1.50;1.00;;;32.00;52.60;;;;;;5074055;28;20457;-71
2022/08/06 11:30:49;;;;;;;1.30;0.90;;;30.80;51.70;;;;;;5075324;28;20482;-71
2022/08/06 11:33:20;;;;;;;1.20;0.73;;;29.90;53.20;;;;;;5067082;28;21012;-71
2022/08/06 11:35:49;;;;;;;1.50;0.90;;;29.50;54.30;;;;;;5070415;28;21102;-71
2022/08/06 11:38:58;;;;;;;1.33;0.90;;;29.60;54.70;;;;;;5080199;28;20474;-71
2022/08/06 11:41:27;;;;;;;1.30;0.80;;;28.90;54.30;;;;;;5065165;28;20453;-71
2022/08/06 11:44:07;;;;;;;1.93;1.00;;;27.70;56.10;;;;;;5071206;28;20868;-71
2022/08/06 11:46:36;;;;;;;1.97;0.90;;;28.20;57.00;;;;;;5059902;28;20701;-70
2022/08/06 11:49:34;;;;;;;1.20;0.83;;;29.80;54.20;;;;;;5067239;28;20569;-70
2022/08/06 11:52:01;;;;;;;1.10;0.70;;;31.60;52.40;;;;;;5074597;28;20469;-71
2022/08/06 11:54:32;;;;;;;1.93;0.80;;;32.50;51.20;;;;;;5070614;28;20853;-71
2022/08/06 11:57:19;;;;;;;1.73;0.87;;;32.40;50.60;;;;;;5063197;28;21092;-70
2022/08/06 11:59:48;;;;;;;1.10;0.70;;;30.70;52.10;;;;;;5073672;28;20452;-71
2022/08/06 12:02:17;;;;;;;1.10;0.70;;;29.90;50.80;;;;;;5064777;28;20476;-70
2022/08/06 12:04:46;;;;;;;1.23;0.93;;;30.30;52.20;;;;;;5063142;28;20919;-70
2022/08/06 12:07:18;;;;;;;1.97;0.90;;;31.30;50.60;;;;;;5065014;28;20591;-71
2022/08/06 12:09:48;;;;;;;2.07;0.97;;;32.50;49.30;;;;;;5070823;28;20507;-71
2022/08/06 12:12:37;;;;;;;4.20;3.13;;;32.60;49.60;;;;;;5071515;28;23228;-71
2022/08/06 12:15:23;;;;;;;1.40;0.97;;;33.00;49.30;;;;;;5064776;28;20473;-71
2022/08/06 12:17:58;;;;;;;1.63;1.53;;;33.50;49.00;;;;;;5061918;28;20453;-71
2022/08/06 12:20:31;;;;;;;3.63;1.00;;;33.10;48.50;;;;;;5073255;28;20453;-72
2022/08/06 12:22:58;;;;;;;1.30;0.90;;;33.40;48.30;;;;;;5069216;28;20575;-71
2022/08/06 12:25:33;;;;;;;2.80;0.87;;;33.30;48.00;;;;;;5071390;28;20824;-71
2022/08/06 12:28:00;;;;;;;1.20;0.80;;;33.40;47.00;;;;;;5068953;28;20461;-70
2022/08/06 12:30:27;;;;;;;5.73;1.13;;;33.70;46.20;;;;;;5065641;28;20483;-70
2022/08/06 12:33:01;;;;;;;1.20;0.90;;;34.10;47.00;;;;;;5072000;28;20569;-70
2022/08/06 12:35:28;;;;;;;1.00;0.70;;;32.20;46.70;;;;;;5071529;28;20449;-71
2022/08/06 12:37:55;;;;;;;1.60;0.80;;;31.60;49.70;;;;;;5063897;28;20477;-70
2022/08/06 12:40:27;;;;;;;1.57;1.00;;;33.20;47.70;;;;;;5056304;28;20933;-71
